createdAt,value
2018-05-29T00:00:37.609Z,14.00
2018-05-29T00:03:05.935Z,14.00
2018-05-29T00:05:34.314Z,13.90
2018-05-29T00:08:03.378Z,13.90
2018-05-29T00:10:31.813Z,13.90
2018-05-29T00:13:00.116Z,14.00
2018-05-29T00:15:28.496Z,14.00
2018-05-29T00:17:56.798Z,13.90
2018-05-29T00:20:25.108Z,13.90
2018-05-29T00:22:54.209Z,13.80
2018-05-29T00:25:22.515Z,13.70
2018-05-29T00:27:50.886Z,13.80
2018-05-29T00:30:19.240Z,13.80
2018-05-29T00:32:48.323Z,13.80
2018-05-29T00:35:17.422Z,13.70
2018-05-29T00:37:46.522Z,13.70
2018-05-29T00:40:15.675Z,13.60
2018-05-29T00:42:43.968Z,13.60
2018-05-29T00:45:12.278Z,13.70
2018-05-29T00:47:40.682Z,13.70
2018-05-29T00:50:09.899Z,13.60
2018-05-29T00:52:38.204Z,13.60
2018-05-29T00:55:18.478Z,13.70
2018-05-29T00:57:47.536Z,13.80
2018-05-29T01:00:15.840Z,13.70
2018-05-29T01:02:44.193Z,13.70
2018-05-29T01:05:12.509Z,13.50
2018-05-29T01:07:41.571Z,13.40
2018-05-29T01:10:09.929Z,13.40
2018-05-29T01:12:38.264Z,13.40
2018-05-29T01:15:06.544Z,13.40
2018-05-29T01:17:35.748Z,13.30
2018-05-29T01:20:04.816Z,13.40
2018-05-29T01:22:33.115Z,13.30
2018-05-29T01:25:02.238Z,13.40
2018-05-29T01:27:30.541Z,13.30
2018-05-29T01:29:58.906Z,13.30
2018-05-29T01:32:27.340Z,13.30
2018-05-29T01:34:56.423Z,13.30
2018-05-29T01:37:24.741Z,13.30
2018-05-29T01:39:54.004Z,13.40
2018-05-29T01:42:22.337Z,13.30
2018-05-29T01:44:50.781Z,13.20
2018-05-29T01:47:19.886Z,13.20
2018-05-29T01:49:48.966Z,13.20
2018-05-29T01:52:17.301Z,13.10
2018-05-29T01:54:45.596Z,13.20
2018-05-29T01:57:13.950Z,13.20
2018-05-29T01:59:42.286Z,13.20
2018-05-29T02:02:11.404Z,13.10
2018-05-29T02:04:39.758Z,13.10
2018-05-29T02:07:08.131Z,13.10
2018-05-29T02:09:36.472Z,13.10
2018-05-29T02:12:04.773Z,13.10
2018-05-29T02:14:33.162Z,13.10
2018-05-29T02:17:01.533Z,13.10
2018-05-29T02:19:29.933Z,13.00
2018-05-29T02:21:59.036Z,13.00
2018-05-29T02:24:28.126Z,13.00
2018-05-29T02:26:57.237Z,13.00
2018-05-29T02:29:26.297Z,13.00
2018-05-29T02:31:54.695Z,13.00
2018-05-29T02:34:23.786Z,13.10
2018-05-29T02:36:52.131Z,13.00
2018-05-29T02:39:20.536Z,12.90
2018-05-29T02:41:48.833Z,12.80
2018-05-29T02:44:17.915Z,12.70
2018-05-29T02:46:47.058Z,12.80
2018-05-29T02:49:15.390Z,12.70
2018-05-29T02:51:43.785Z,12.80
2018-05-29T02:54:12.140Z,12.70
2018-05-29T02:56:40.442Z,12.70
2018-05-29T02:59:09.568Z,12.70
2018-05-29T03:01:37.938Z,12.70
2018-05-29T03:04:06.246Z,12.80
2018-05-29T03:06:34.560Z,12.80
2018-05-29T03:09:02.945Z,12.80
2018-05-29T03:11:31.241Z,12.70
2018-05-29T03:14:00.366Z,12.70
2018-05-29T03:16:28.701Z,12.70
2018-05-29T03:18:57.803Z,12.70
2018-05-29T03:21:26.918Z,12.60
2018-05-29T03:23:55.241Z,12.60
2018-05-29T03:26:23.628Z,12.60
2018-05-29T03:28:51.965Z,12.60
2018-05-29T03:31:20.361Z,12.60
2018-05-29T03:33:48.756Z,12.60
2018-05-29T03:36:17.136Z,12.60
2018-05-29T03:38:45.436Z,12.70
2018-05-29T03:41:13.823Z,12.70
2018-05-29T03:43:42.145Z,12.70
2018-05-29T03:46:10.453Z,12.80
2018-05-29T03:48:38.937Z,12.80
2018-05-29T03:51:07.273Z,12.90
2018-05-29T03:53:35.592Z,13.00
2018-05-29T03:56:03.972Z,13.10
2018-05-29T03:58:32.341Z,13.10
2018-05-29T04:01:00.655Z,13.10
2018-05-29T04:03:29.014Z,13.10
2018-05-29T04:05:58.158Z,13.20
2018-05-29T04:08:26.489Z,13.10
2018-05-29T04:10:56.581Z,13.20
2018-05-29T04:13:24.932Z,13.10
2018-05-29T04:15:54.066Z,13.20
2018-05-29T04:18:23.143Z,13.30
2018-05-29T04:20:51.467Z,13.30
2018-05-29T04:23:19.760Z,13.30
2018-05-29T04:25:48.985Z,13.50
2018-05-29T04:28:17.306Z,13.50
2018-05-29T04:30:45.622Z,13.60
2018-05-29T04:33:14.730Z,13.50
2018-05-29T04:35:43.801Z,13.50
2018-05-29T04:38:12.113Z,13.50
2018-05-29T04:40:40.493Z,13.60
2018-05-29T04:43:08.809Z,13.60
2018-05-29T04:45:37.177Z,13.70
2018-05-29T04:48:05.480Z,13.70
2018-05-29T04:50:33.806Z,13.80
2018-05-29T04:53:02.153Z,14.00
2018-05-29T04:55:30.516Z,14.10
2018-05-29T04:57:58.956Z,14.10
2018-05-29T05:00:27.265Z,14.30
2018-05-29T05:02:55.602Z,14.40
2018-05-29T05:05:23.988Z,14.60
2018-05-29T05:07:52.336Z,14.80
2018-05-29T05:10:21.409Z,15.00
2018-05-29T05:12:49.773Z,15.00
2018-05-29T05:15:18.068Z,15.10
2018-05-29T05:17:46.380Z,15.20
2018-05-29T05:20:14.785Z,15.30
2018-05-29T05:22:43.112Z,15.40
2018-05-29T05:25:12.188Z,15.70
2018-05-29T05:27:40.610Z,15.60
2018-05-29T05:30:09.682Z,16.00
2018-05-29T05:32:37.991Z,16.00
2018-05-29T05:35:06.425Z,16.30
2018-05-29T05:37:34.832Z,16.50
2018-05-29T05:40:03.174Z,16.60
2018-05-29T05:42:31.599Z,16.80
2018-05-29T05:45:00.769Z,17.10
2018-05-29T05:47:29.116Z,17.00
2018-05-29T05:49:57.501Z,17.30
2018-05-29T05:52:25.814Z,17.50
2018-05-29T05:54:54.892Z,18.00
2018-05-29T05:57:23.240Z,18.00
2018-05-29T05:59:52.378Z,18.50
2018-05-29T06:02:20.745Z,18.50
2018-05-29T06:04:50.958Z,19.10
2018-05-29T06:07:19.388Z,19.00
2018-05-29T06:09:48.648Z,19.40
2018-05-29T06:12:17.007Z,19.40
2018-05-29T06:14:45.392Z,19.60
2018-05-29T06:17:13.748Z,19.90
2018-05-29T06:19:42.062Z,20.00
2018-05-29T06:22:10.387Z,20.10
2018-05-29T06:24:39.528Z,20.40
2018-05-29T06:27:07.957Z,20.40
2018-05-29T06:29:36.288Z,20.60
2018-05-29T06:32:04.683Z,20.70
2018-05-29T06:34:33.935Z,20.90
2018-05-29T06:37:02.256Z,21.10
2018-05-29T06:39:30.790Z,21.10
2018-05-29T06:42:00.000Z,21.30
2018-05-29T06:44:29.447Z,21.20
2018-05-29T06:46:58.734Z,21.50
2018-05-29T06:49:27.098Z,21.50
2018-05-29T06:51:55.484Z,21.60
2018-05-29T06:54:23.908Z,21.70
2018-05-29T06:56:53.084Z,21.80
2018-05-29T06:59:21.510Z,21.80
2018-05-29T07:01:50.607Z,22.00
2018-05-29T07:04:19.017Z,22.00
2018-05-29T07:06:47.503Z,22.00
2018-05-29T07:09:27.701Z,22.10
2018-05-29T07:11:56.901Z,22.20
2018-05-29T07:14:25.297Z,22.20
2018-05-29T07:16:54.561Z,22.30
2018-05-29T07:19:23.072Z,22.30
2018-05-29T07:21:52.218Z,22.60
2018-05-29T07:24:20.569Z,22.50
2018-05-29T07:26:48.975Z,22.70
2018-05-29T07:29:17.454Z,22.80
2018-05-29T07:31:45.799Z,22.90
2018-05-29T07:34:14.991Z,23.40
2018-05-29T07:36:44.268Z,23.80
2018-05-29T07:39:13.438Z,24.10
2018-05-29T07:41:41.926Z,24.10
2018-05-29T07:44:10.318Z,24.20
2018-05-29T07:46:38.652Z,24.10
2018-05-29T07:49:07.071Z,24.10
2018-05-29T07:51:35.496Z,24.20
2018-05-29T07:54:04.622Z,25.10
2018-05-29T07:56:33.066Z,25.10
2018-05-29T07:59:02.444Z,25.00
2018-05-29T08:01:30.805Z,25.00
2018-05-29T08:03:59.228Z,25.30
2018-05-29T08:06:28.368Z,26.40
2018-05-29T08:08:57.499Z,26.60
2018-05-29T08:11:26.035Z,26.60
2018-05-29T08:13:54.407Z,26.80
2018-05-29T08:16:22.889Z,26.70
2018-05-29T08:18:51.303Z,26.60
2018-05-29T08:21:19.754Z,26.60
2018-05-29T08:23:48.124Z,26.60
2018-05-29T08:26:16.559Z,26.50
2018-05-29T08:28:44.942Z,26.50
2018-05-29T08:31:13.290Z,26.40
2018-05-29T08:33:41.809Z,26.30
2018-05-29T08:36:10.190Z,26.20
2018-05-29T08:38:38.544Z,25.90
2018-05-29T08:41:07.070Z,25.40
2018-05-29T08:43:35.480Z,25.20
2018-05-29T08:46:03.857Z,25.20
2018-05-29T08:48:32.277Z,25.40
2018-05-29T08:51:00.637Z,25.40
2018-05-29T08:53:28.980Z,25.40
2018-05-29T08:55:57.481Z,25.50
2018-05-29T08:58:25.849Z,25.60
2018-05-29T09:00:54.223Z,25.50
2018-05-29T09:03:22.794Z,25.60
2018-05-29T09:05:52.130Z,25.90
2018-05-29T09:08:20.512Z,25.90
2018-05-29T09:10:49.004Z,25.90
2018-05-29T09:13:17.349Z,25.50
2018-05-29T09:15:45.739Z,25.30
2018-05-29T09:18:14.175Z,25.30
2018-05-29T09:20:42.516Z,25.30
2018-05-29T09:23:10.861Z,25.50
2018-05-29T09:25:39.301Z,26.10
2018-05-29T09:28:07.695Z,26.10
2018-05-29T09:30:36.116Z,26.00
2018-05-29T09:33:04.652Z,25.90
2018-05-29T09:35:33.146Z,25.80
2018-05-29T09:38:01.637Z,25.60
2018-05-29T09:40:30.843Z,25.90
2018-05-29T09:42:59.214Z,25.90
2018-05-29T09:45:28.327Z,26.30
2018-05-29T09:47:56.875Z,26.20
2018-05-29T09:50:25.223Z,26.00
2018-05-29T09:52:53.662Z,26.20
2018-05-29T09:55:22.153Z,26.60
2018-05-29T09:57:50.625Z,26.70
2018-05-29T10:00:25.517Z,27.20
2018-05-29T10:02:53.877Z,27.20
2018-05-29T10:05:22.208Z,27.40
2018-05-29T10:07:51.436Z,27.10
2018-05-29T10:10:19.903Z,27.00
2018-05-29T10:12:49.080Z,26.60
2018-05-29T10:15:18.267Z,27.00
2018-05-29T10:17:47.422Z,27.10
2018-05-29T10:20:15.803Z,27.10
2018-05-29T10:22:44.229Z,27.00
2018-05-29T10:25:12.612Z,26.90
2018-05-29T10:27:40.997Z,27.00
2018-05-29T10:30:10.232Z,27.00
2018-05-29T10:32:38.578Z,27.00
2018-05-29T10:35:07.777Z,27.30
2018-05-29T10:37:37.036Z,27.30
2018-05-29T10:40:05.410Z,27.20
2018-05-29T10:42:33.773Z,26.90
2018-05-29T10:47:22.949Z,26.90
2018-05-29T10:49:51.308Z,27.10
2018-05-29T10:52:20.473Z,27.30
2018-05-29T10:54:51.042Z,27.30
2018-05-29T10:57:19.651Z,27.20
2018-05-29T10:59:48.087Z,27.20
2018-05-29T11:02:17.194Z,27.10
2018-05-29T11:04:46.381Z,26.70
2018-05-29T11:07:15.567Z,26.40
2018-05-29T11:09:43.935Z,26.40
2018-05-29T11:12:12.297Z,26.00
2018-05-29T11:14:40.672Z,26.00
2018-05-29T11:17:09.162Z,26.20
2018-05-29T11:19:38.321Z,27.00
2018-05-29T11:22:06.769Z,27.00
2018-05-29T11:24:35.196Z,27.20
2018-05-29T11:27:03.756Z,27.30
2018-05-29T11:29:33.078Z,27.60
2018-05-29T11:32:01.410Z,27.60
2018-05-29T11:34:29.784Z,27.80
2018-05-29T11:36:58.220Z,27.50
2018-05-29T11:39:26.577Z,27.60
2018-05-29T11:41:55.837Z,27.50
2018-05-29T11:44:24.998Z,27.40
2018-05-29T11:46:53.427Z,27.40
2018-05-29T11:51:56.455Z,27.40
2018-05-29T11:54:25.548Z,27.60
2018-05-29T11:56:54.721Z,27.80
2018-05-29T11:59:23.186Z,27.80
2018-05-29T12:01:51.656Z,27.90
2018-05-29T12:04:20.293Z,28.00
2018-05-29T12:06:48.397Z,28.20
2018-05-29T12:09:16.757Z,28.00
2018-05-29T12:11:45.370Z,28.30
2018-05-29T12:14:13.916Z,28.70
2018-05-29T12:16:42.388Z,29.10
2018-05-29T12:19:11.648Z,29.30
2018-05-29T12:21:40.079Z,29.30
2018-05-29T12:24:09.188Z,29.40
2018-05-29T12:26:37.621Z,29.30
2018-05-29T12:29:06.963Z,29.40
2018-05-29T12:31:36.113Z,29.70
2018-05-29T12:34:05.256Z,29.80
2018-05-29T12:36:33.611Z,29.80
2018-05-29T12:39:02.827Z,30.00
2018-05-29T12:41:32.048Z,29.80
2018-05-29T12:44:00.447Z,29.80
2018-05-29T12:46:28.913Z,29.90
2018-05-29T12:48:58.279Z,29.90
2018-05-29T12:51:26.777Z,30.00
2018-05-29T12:53:55.472Z,29.70
2018-05-29T12:56:23.936Z,29.40
2018-05-29T12:58:53.052Z,28.90
2018-05-29T13:01:21.519Z,28.90
2018-05-29T13:03:50.780Z,28.90
2018-05-29T13:06:19.207Z,28.90
2018-05-29T13:08:47.777Z,29.10
2018-05-29T13:11:16.998Z,29.40
2018-05-29T13:13:45.332Z,29.40
2018-05-29T13:16:13.688Z,29.40
2018-05-29T13:18:42.041Z,29.20
2018-05-29T13:21:10.421Z,29.30
2018-05-29T13:23:38.866Z,30.00
2018-05-29T13:26:08.057Z,30.10
2018-05-29T13:28:36.407Z,30.00
2018-05-29T13:31:04.809Z,30.00
2018-05-29T13:33:33.115Z,30.00
2018-05-29T13:36:02.292Z,30.40
2018-05-29T13:38:31.594Z,30.80
2018-05-29T13:41:00.224Z,30.70
2018-05-29T13:43:29.784Z,31.20
2018-05-29T13:45:58.192Z,31.40
2018-05-29T13:48:26.681Z,31.20
2018-05-29T13:50:56.476Z,30.40
2018-05-29T13:53:25.770Z,30.90
2018-05-29T13:55:55.010Z,30.80
2018-05-29T13:58:23.409Z,30.70
2018-05-29T14:00:53.586Z,29.00
2018-05-29T14:03:22.790Z,28.60
2018-05-29T14:05:53.120Z,29.10
2018-05-29T14:08:21.662Z,29.10
2018-05-29T14:10:50.166Z,29.90
2018-05-29T14:13:19.337Z,30.60
2018-05-29T14:15:48.696Z,30.60
2018-05-29T14:18:17.191Z,31.20
2018-05-29T14:20:45.830Z,32.00
2018-05-29T14:23:15.051Z,32.40
2018-05-29T14:25:43.443Z,32.40
2018-05-29T14:28:11.905Z,32.50
2018-05-29T14:30:40.285Z,32.20
2018-05-29T14:33:09.485Z,32.20
2018-05-29T14:35:38.009Z,32.20
2018-05-29T14:38:06.816Z,32.30
2018-05-29T14:40:36.211Z,33.20
2018-05-29T14:43:04.584Z,33.80
2018-05-29T14:45:33.144Z,34.00
2018-05-29T14:48:01.669Z,33.70
2018-05-29T14:50:30.058Z,32.50
2018-05-29T14:52:58.591Z,30.00
2018-05-29T14:55:27.042Z,27.10
2018-05-29T14:57:56.223Z,23.20
2018-05-29T15:00:26.721Z,22.00
2018-05-29T15:02:55.170Z,21.90
2018-05-29T15:05:23.649Z,21.20
2018-05-29T15:07:52.286Z,20.80
2018-05-29T15:10:20.718Z,20.30
2018-05-29T15:12:49.180Z,20.00
2018-05-29T15:15:18.364Z,19.60
2018-05-29T15:17:47.576Z,19.10
2018-05-29T15:20:15.974Z,19.10
2018-05-29T15:22:46.026Z,17.80
2018-05-29T15:25:14.400Z,17.80
2018-05-29T15:27:42.798Z,17.40
2018-05-29T15:30:11.154Z,17.10
2018-05-29T15:32:39.585Z,16.80
2018-05-29T15:35:07.937Z,16.70
2018-05-29T15:37:36.284Z,16.50
2018-05-29T15:40:04.740Z,16.50
2018-05-29T15:42:33.326Z,16.50
2018-05-29T15:45:01.649Z,16.50
2018-05-29T15:47:29.984Z,16.60
2018-05-29T15:49:59.481Z,16.60
2018-05-29T15:52:28.611Z,16.50
2018-05-29T15:54:57.772Z,16.50
2018-05-29T15:57:27.089Z,16.50
2018-05-29T15:59:56.847Z,16.40
2018-05-29T16:02:25.327Z,16.40
2018-05-29T16:04:53.790Z,16.50
2018-05-29T16:07:22.136Z,16.50
2018-05-29T16:09:50.514Z,16.50
2018-05-29T16:12:18.875Z,16.50
2018-05-29T16:14:47.989Z,16.50
2018-05-29T16:17:16.316Z,16.50
2018-05-29T16:19:45.388Z,16.70
2018-05-29T16:22:13.737Z,16.60
2018-05-29T16:24:42.067Z,16.70
2018-05-29T16:27:10.377Z,16.70
2018-05-29T16:29:38.736Z,16.70
2018-05-29T16:32:07.076Z,16.70
2018-05-29T16:34:35.528Z,16.70
2018-05-29T16:37:03.810Z,16.80
2018-05-29T16:39:32.293Z,16.80
2018-05-29T16:42:00.669Z,16.80
2018-05-29T16:44:29.788Z,16.90
2018-05-29T16:46:59.206Z,16.90
2018-05-29T16:49:28.494Z,17.00
2018-05-29T16:51:56.814Z,16.90
2018-05-29T16:54:25.129Z,16.90
2018-05-29T16:56:54.480Z,16.90
2018-05-29T16:59:23.028Z,16.80
2018-05-29T17:01:51.477Z,16.80
2018-05-29T17:04:19.809Z,16.80
2018-05-29T17:06:48.195Z,16.80
2018-05-29T17:09:16.595Z,17.00
2018-05-29T17:11:44.901Z,17.10
2018-05-29T17:14:13.987Z,17.20
2018-05-29T17:16:43.208Z,17.20
2018-05-29T17:19:12.393Z,17.20
2018-05-29T17:21:40.939Z,17.20
2018-05-29T17:24:09.340Z,17.20
2018-05-29T17:26:37.749Z,17.30
2018-05-29T17:29:06.463Z,17.20
2018-05-29T17:31:34.823Z,17.20
2018-05-29T17:34:03.524Z,17.30
2018-05-29T17:36:31.869Z,17.30
2018-05-29T17:39:01.055Z,17.40
2018-05-29T17:41:29.373Z,17.40
2018-05-29T17:43:57.729Z,17.40
2018-05-29T17:46:26.864Z,17.40
2018-05-29T17:48:55.284Z,17.40
2018-05-29T17:51:23.698Z,17.40
2018-05-29T17:53:52.177Z,17.40
2018-05-29T17:56:20.870Z,17.30
2018-05-29T17:58:49.230Z,17.20
2018-05-29T18:01:18.544Z,17.00
2018-05-29T18:03:47.606Z,16.90
2018-05-29T18:06:16.027Z,16.90
2018-05-29T18:08:44.433Z,17.00
2018-05-29T18:11:12.804Z,17.00
2018-05-29T18:13:41.157Z,16.90
2018-05-29T18:16:10.321Z,16.90
2018-05-29T18:18:38.679Z,16.90
2018-05-29T18:21:07.479Z,17.00
2018-05-29T18:23:35.862Z,17.00
2018-05-29T18:26:05.046Z,16.90
2018-05-29T18:28:33.370Z,16.90
2018-05-29T18:31:02.477Z,16.90
2018-05-29T18:33:31.543Z,16.90
2018-05-29T18:36:00.631Z,16.80
2018-05-29T18:38:29.012Z,16.80
2018-05-29T18:40:57.432Z,16.80
2018-05-29T18:43:25.793Z,16.90
2018-05-29T18:45:54.164Z,16.90
2018-05-29T18:48:23.292Z,17.00
2018-05-29T18:50:51.628Z,17.00
2018-05-29T18:53:20.033Z,17.10
2018-05-29T18:55:49.210Z,17.10
2018-05-29T18:58:17.585Z,17.10
2018-05-29T19:00:45.946Z,17.10
2018-05-29T19:03:14.314Z,17.10
2018-05-29T19:05:42.705Z,17.00
2018-05-29T19:08:11.842Z,16.90
2018-05-29T19:10:40.983Z,16.90
2018-05-29T19:13:09.457Z,16.90
2018-05-29T19:15:37.818Z,16.80
2018-05-29T19:18:07.074Z,16.60
2018-05-29T19:20:36.336Z,16.60
2018-05-29T19:23:04.793Z,16.50
2018-05-29T19:25:33.431Z,16.40
2018-05-29T19:28:01.794Z,16.30
2018-05-29T19:30:30.190Z,16.20
2018-05-29T19:32:58.579Z,16.20
2018-05-29T19:35:26.945Z,16.20
2018-05-29T19:37:55.319Z,16.10
2018-05-29T19:40:23.648Z,16.00
2018-05-29T19:42:52.780Z,15.90
2018-05-29T19:45:21.200Z,15.90
2018-05-29T19:47:50.584Z,15.90
2018-05-29T19:50:18.965Z,15.90
2018-05-29T19:52:47.330Z,15.90
2018-05-29T19:55:15.701Z,15.90
2018-05-29T19:57:44.110Z,15.90
2018-05-29T20:00:12.569Z,15.90
2018-05-29T20:02:40.872Z,15.80
2018-05-29T20:05:09.162Z,15.80
2018-05-29T20:07:38.237Z,15.80
2018-05-29T20:10:06.550Z,15.80
2018-05-29T20:12:35.710Z,15.80
2018-05-29T20:15:04.071Z,15.80
2018-05-29T20:17:32.405Z,15.70
2018-05-29T20:20:01.557Z,15.70
2018-05-29T20:22:30.732Z,15.70
2018-05-29T20:24:59.104Z,15.70
2018-05-29T20:27:27.465Z,15.60
2018-05-29T20:29:55.823Z,15.60
2018-05-29T20:32:24.394Z,15.50
2018-05-29T20:34:52.776Z,15.40
2018-05-29T20:37:21.148Z,15.40
2018-05-29T20:39:49.533Z,15.20
2018-05-29T20:42:18.002Z,15.20
2018-05-29T20:44:46.375Z,15.20
2018-05-29T20:47:14.705Z,15.20
2018-05-29T20:49:43.048Z,15.20
2018-05-29T20:52:11.366Z,15.10
2018-05-29T20:54:39.868Z,15.10
2018-05-29T20:57:08.193Z,15.10
2018-05-29T20:59:36.527Z,15.10
2018-05-29T21:02:04.907Z,15.10
2018-05-29T21:04:33.247Z,15.10
2018-05-29T21:07:02.411Z,15.20
2018-05-29T21:09:30.764Z,15.10
2018-05-29T21:11:59.128Z,15.10
2018-05-29T21:14:27.485Z,15.00
2018-05-29T21:16:56.573Z,15.00
2018-05-29T21:19:25.773Z,14.90
2018-05-29T21:21:54.897Z,14.80
2018-05-29T21:24:23.230Z,14.80
2018-05-29T21:26:52.391Z,14.70
2018-05-29T21:29:20.729Z,14.70
2018-05-29T21:31:50.234Z,14.70
2018-05-29T21:34:18.590Z,14.70
2018-05-29T21:36:46.957Z,14.70
2018-05-29T21:39:15.337Z,14.70
2018-05-29T21:41:43.782Z,14.70
2018-05-29T21:44:12.115Z,14.70
2018-05-29T21:46:40.485Z,14.70
2018-05-29T21:49:08.881Z,14.60
2018-05-29T21:51:37.282Z,14.60
2018-05-29T21:54:05.623Z,14.60
2018-05-29T21:56:33.979Z,14.70
2018-05-29T21:59:02.345Z,14.60
2018-05-29T22:01:30.691Z,14.60
2018-05-29T22:04:03.528Z,14.50
2018-05-29T22:06:31.893Z,14.40
2018-05-29T22:09:00.231Z,14.50
2018-05-29T22:11:29.349Z,14.40
2018-05-29T22:13:58.437Z,14.50
2018-05-29T22:16:26.854Z,14.50
2018-05-29T22:18:55.166Z,14.50
2018-05-29T22:21:23.508Z,14.50
2018-05-29T22:23:51.929Z,14.40
2018-05-29T22:26:20.328Z,14.40
2018-05-29T22:28:48.645Z,14.40
2018-05-29T22:31:16.983Z,14.40
2018-05-29T22:33:45.379Z,14.40
2018-05-29T22:36:13.753Z,14.40
2018-05-29T22:38:42.250Z,14.50
2018-05-29T22:41:10.535Z,14.40
2018-05-29T22:43:38.852Z,14.40
2018-05-29T22:46:07.193Z,14.30
2018-05-29T22:48:35.592Z,14.40
2018-05-29T22:51:03.969Z,14.30
2018-05-29T22:53:32.293Z,14.30
2018-05-29T22:56:00.581Z,14.20
2018-05-29T22:58:29.032Z,14.20
2018-05-29T23:00:57.375Z,14.20
2018-05-29T23:03:25.778Z,14.20
2018-05-29T23:05:54.123Z,14.10
2018-05-29T23:08:22.638Z,14.10
2018-05-29T23:10:50.967Z,14.10
2018-05-29T23:13:19.294Z,14.20
2018-05-29T23:15:47.629Z,14.20
2018-05-29T23:18:16.069Z,14.10
2018-05-29T23:20:44.486Z,14.00
2018-05-29T23:23:12.817Z,14.00
2018-05-29T23:25:41.209Z,14.10
2018-05-29T23:28:10.293Z,14.20
2018-05-29T23:30:38.669Z,14.20
2018-05-29T23:33:07.753Z,14.10
2018-05-29T23:35:36.139Z,14.10
2018-05-29T23:38:04.512Z,14.20
2018-05-29T23:40:32.906Z,14.20
2018-05-29T23:43:01.266Z,14.10
2018-05-29T23:45:29.661Z,14.00
2018-05-29T23:47:59.691Z,14.00
2018-05-29T23:50:28.875Z,14.10
2018-05-29T23:52:57.248Z,14.10
2018-05-29T23:55:25.558Z,14.10
2018-05-29T23:57:54.620Z,14.20
